Terminal Aerodrome Forecast
Issued by NWS

Home | Current Version | Previous Version | Graphics & Text | Print | Product List | Glossary On
Versions: 1 2 3 4 5 6 7 8 9 10 11 12 13 14 15 16
000
FTUS43 KTOP 112300
TAFMHK
TAF
KMHK 112320Z 1200/1224 20009KT P6SM FEW120
     FM121500 21013G21KT P6SM FEW250=

USA.gov is the U.S. government's official web portal to all federal, state and local government web resources and services.